sensor_id;sensor_type;location;lat;lon;timestamp;pressure;altitude;pressure_sealevel;temperature;humidity
30724;BME280;17473;52.286;20.930;2023-02-28T00:01:33;101783.25;;;0.58;51.54
30724;BME280;17473;52.286;20.930;2023-02-28T00:04:00;101782.34;;;0.67;51.33
30724;BME280;17473;52.286;20.930;2023-02-28T00:06:27;101796.00;;;0.55;51.52
30724;BME280;17473;52.286;20.930;2023-02-28T00:08:54;101782.38;;;0.58;51.50
30724;BME280;17473;52.286;20.930;2023-02-28T00:11:21;101795.06;;;0.55;51.71
30724;BME280;17473;52.286;20.930;2023-02-28T00:13:49;101799.81;;;0.59;51.31
30724;BME280;17473;52.286;20.930;2023-02-28T00:16:21;101792.19;;;0.43;51.59
30724;BME280;17473;52.286;20.930;2023-02-28T00:18:49;101796.63;;;0.44;51.81
30724;BME280;17473;52.286;20.930;2023-02-28T00:21:18;101797.56;;;0.36;51.83
30724;BME280;17473;52.286;20.930;2023-02-28T00:23:46;101804.59;;;0.28;51.96
30724;BME280;17473;52.286;20.930;2023-02-28T00:26:14;101801.25;;;0.29;51.82
30724;BME280;17473;52.286;20.930;2023-02-28T00:28:41;101807.50;;;0.31;51.86
30724;BME280;17473;52.286;20.930;2023-02-28T00:31:08;101812.72;;;0.31;51.64
30724;BME280;17473;52.286;20.930;2023-02-28T00:33:36;101811.19;;;0.33;51.78
30724;BME280;17473;52.286;20.930;2023-02-28T00:36:07;101810.44;;;0.34;51.79
30724;BME280;17473;52.286;20.930;2023-02-28T00:38:34;101810.75;;;0.28;51.91
30724;BME280;17473;52.286;20.930;2023-02-28T00:41:02;101813.59;;;0.49;51.26
30724;BME280;17473;52.286;20.930;2023-02-28T00:43:37;101805.50;;;0.37;51.38
30724;BME280;17473;52.286;20.930;2023-02-28T00:46:05;101805.06;;;0.33;51.95
30724;BME280;17473;52.286;20.930;2023-02-28T00:48:32;101807.47;;;0.49;51.35
30724;BME280;17473;52.286;20.930;2023-02-28T00:51:00;101800.63;;;0.40;51.45
30724;BME280;17473;52.286;20.930;2023-02-28T00:53:28;101799.09;;;0.42;51.70
30724;BME280;17473;52.286;20.930;2023-02-28T00:55:55;101800.03;;;0.34;52.08
30724;BME280;17473;52.286;20.930;2023-02-28T00:58:22;101788.06;;;0.36;52.08
30724;BME280;17473;52.286;20.930;2023-02-28T01:00:50;101800.66;;;0.23;52.41
30724;BME280;17473;52.286;20.930;2023-02-28T01:03:19;101804.94;;;0.22;52.45
30724;BME280;17473;52.286;20.930;2023-02-28T01:05:47;101803.13;;;0.12;53.07
30724;BME280;17473;52.286;20.930;2023-02-28T01:08:14;101810.91;;;0.12;53.14
30724;BME280;17473;52.286;20.930;2023-02-28T01:10:42;101801.91;;;0.18;53.12
30724;BME280;17473;52.286;20.930;2023-02-28T01:13:09;101788.44;;;0.22;52.97
30724;BME280;17473;52.286;20.930;2023-02-28T01:15:37;101797.44;;;0.25;52.75
30724;BME280;17473;52.286;20.930;2023-02-28T01:18:05;101799.91;;;0.24;52.82
30724;BME280;17473;52.286;20.930;2023-02-28T01:20:32;101798.81;;;0.22;53.25
30724;BME280;17473;52.286;20.930;2023-02-28T01:22:59;101797.28;;;0.24;53.09
30724;BME280;17473;52.286;20.930;2023-02-28T01:25:26;101801.09;;;0.27;52.91
30724;BME280;17473;52.286;20.930;2023-02-28T01:27:53;101803.69;;;0.27;52.80
30724;BME280;17473;52.286;20.930;2023-02-28T01:30:21;101804.47;;;0.26;52.85
30724;BME280;17473;52.286;20.930;2023-02-28T01:32:48;101802.91;;;0.37;52.72
30724;BME280;17473;52.286;20.930;2023-02-28T01:35:15;101807.22;;;0.28;53.20
30724;BME280;17473;52.286;20.930;2023-02-28T01:37:42;101812.44;;;0.19;53.53
30724;BME280;17473;52.286;20.930;2023-02-28T01:40:10;101809.22;;;0.22;53.35
30724;BME280;17473;52.286;20.930;2023-02-28T01:42:37;101809.38;;;0.14;53.71
30724;BME280;17473;52.286;20.930;2023-02-28T01:47:45;101821.59;;;0.24;53.67
30724;BME280;17473;52.286;20.930;2023-02-28T01:50:20;101814.09;;;0.19;54.33
30724;BME280;17473;52.286;20.930;2023-02-28T01:52:50;101813.03;;;0.25;54.14
30724;BME280;17473;52.286;20.930;2023-02-28T01:55:20;101813.19;;;0.18;54.31
30724;BME280;17473;52.286;20.930;2023-02-28T01:57:52;101819.47;;;0.11;54.52
30724;BME280;17473;52.286;20.930;2023-02-28T02:00:25;101811.69;;;0.03;54.88
30724;BME280;17473;52.286;20.930;2023-02-28T02:02:58;101810.75;;;0.02;54.78
30724;BME280;17473;52.286;20.930;2023-02-28T02:05:29;101810.59;;;0.09;54.72
30724;BME280;17473;52.286;20.930;2023-02-28T02:08:09;101809.84;;;0.02;54.82
30724;BME280;17473;52.286;20.930;2023-02-28T02:10:45;101813.06;;;-0.01;54.89
30724;BME280;17473;52.286;20.930;2023-02-28T02:14:09;101808.47;;;-0.04;55.40
30724;BME280;17473;52.286;20.930;2023-02-28T02:17:38;101812.44;;;0.02;55.04
30724;BME280;17473;52.286;20.930;2023-02-28T02:29:07;101815.22;;;-0.06;55.57
30724;BME280;17473;52.286;20.930;2023-02-28T02:43:02;101812.47;;;-0.16;56.46
30724;BME280;17473;52.286;20.930;2023-02-28T02:45:38;101820.72;;;-0.11;56.82
30724;BME280;17473;52.286;20.930;2023-02-28T02:48:11;101817.47;;;-0.18;56.56
30724;BME280;17473;52.286;20.930;2023-02-28T02:50:45;101816.59;;;-0.18;56.92
30724;BME280;17473;52.286;20.930;2023-02-28T02:53:16;101826.22;;;-0.17;57.13
30724;BME280;17473;52.286;20.930;2023-02-28T02:55:47;101825.28;;;-0.18;57.23
30724;BME280;17473;52.286;20.930;2023-02-28T02:58:25;101824.81;;;-0.22;57.65
30724;BME280;17473;52.286;20.930;2023-02-28T03:00:59;101830.34;;;-0.28;57.71
30724;BME280;17473;52.286;20.930;2023-02-28T03:03:28;101825.59;;;-0.23;57.70
30724;BME280;17473;52.286;20.930;2023-02-28T03:06:01;101831.56;;;-0.24;57.84
30724;BME280;17473;52.286;20.930;2023-02-28T03:08:33;101819.63;;;-0.22;58.18
30724;BME280;17473;52.286;20.930;2023-02-28T03:11:04;101825.25;;;-0.35;58.75
30724;BME280;17473;52.286;20.930;2023-02-28T03:22:37;101831.53;;;-0.42;59.14
30724;BME280;17473;52.286;20.930;2023-02-28T03:28:12;101821.28;;;-0.49;59.80
30724;BME280;17473;52.286;20.930;2023-02-28T03:34:00;101832.28;;;-0.52;59.79
30724;BME280;17473;52.286;20.930;2023-02-28T03:36:39;101827.09;;;-0.60;60.01
30724;BME280;17473;52.286;20.930;2023-02-28T03:39:56;101841.75;;;-0.52;59.66
30724;BME280;17473;52.286;20.930;2023-02-28T03:42:29;101832.75;;;-0.56;59.50
30724;BME280;17473;52.286;20.930;2023-02-28T03:45:02;101825.69;;;-0.66;60.09
30724;BME280;17473;52.286;20.930;2023-02-28T03:48:02;101827.22;;;-0.68;59.80
30724;BME280;17473;52.286;20.930;2023-02-28T03:50:47;101831.34;;;-0.61;59.97
30724;BME280;17473;52.286;20.930;2023-02-28T03:53:20;101837.94;;;-0.56;59.88
30724;BME280;17473;52.286;20.930;2023-02-28T03:56:17;101846.47;;;-0.57;60.10
30724;BME280;17473;52.286;20.930;2023-02-28T03:58:55;101841.72;;;-0.61;60.09
30724;BME280;17473;52.286;20.930;2023-02-28T04:01:43;101829.34;;;-0.64;60.07
30724;BME280;17473;52.286;20.930;2023-02-28T04:04:12;101833.00;;;-0.70;60.29
30724;BME280;17473;52.286;20.930;2023-02-28T04:06:40;101835.59;;;-0.70;60.49
30724;BME280;17473;52.286;20.930;2023-02-28T04:09:11;101837.13;;;-0.64;60.65
30724;BME280;17473;52.286;20.930;2023-02-28T04:11:53;101836.06;;;-0.66;60.47
30724;BME280;17473;52.286;20.930;2023-02-28T04:14:22;101841.28;;;-0.57;60.79
30724;BME280;17473;52.286;20.930;2023-02-28T04:16:50;101837.47;;;-0.60;61.51
30724;BME280;17473;52.286;20.930;2023-02-28T04:19:18;101835.59;;;-0.70;61.84
30724;BME280;17473;52.286;20.930;2023-02-28T04:21:53;101846.59;;;-0.73;61.87
30724;BME280;17473;52.286;20.930;2023-02-28T04:24:26;101843.50;;;-0.77;62.19
30724;BME280;17473;52.286;20.930;2023-02-28T04:26:56;101843.38;;;-0.79;62.37
30724;BME280;17473;52.286;20.930;2023-02-28T04:29:30;101827.94;;;-0.86;62.61
30724;BME280;17473;52.286;20.930;2023-02-28T04:31:58;101832.38;;;-0.85;62.96
30724;BME280;17473;52.286;20.930;2023-02-28T04:34:28;101837.41;;;-0.78;62.82
30724;BME280;17473;52.286;20.930;2023-02-28T04:36:56;101838.31;;;-0.77;62.69
30724;BME280;17473;52.286;20.930;2023-02-28T04:39:39;101834.06;;;-0.77;62.66
30724;BME280;17473;52.286;20.930;2023-02-28T04:42:06;101836.63;;;-0.86;62.72
30724;BME280;17473;52.286;20.930;2023-02-28T04:44:34;101839.50;;;-0.91;63.24
30724;BME280;17473;52.286;20.930;2023-02-28T04:47:01;101840.91;;;-0.77;62.54
30724;BME280;17473;52.286;20.930;2023-02-28T04:49:28;101847.16;;;-0.84;62.63
30724;BME280;17473;52.286;20.930;2023-02-28T04:51:55;101846.25;;;-0.85;62.51
30724;BME280;17473;52.286;20.930;2023-02-28T04:54:22;101847.81;;;-0.78;62.33
30724;BME280;17473;52.286;20.930;2023-02-28T04:56:49;101857.09;;;-0.80;62.53
30724;BME280;17473;52.286;20.930;2023-02-28T04:59:17;101852.06;;;-0.79;62.55
30724;BME280;17473;52.286;20.930;2023-02-28T05:01:49;101857.69;;;-0.83;62.53
30724;BME280;17473;52.286;20.930;2023-02-28T05:04:16;101848.69;;;-0.77;62.43
30724;BME280;17473;52.286;20.930;2023-02-28T05:06:44;101846.38;;;-0.83;62.74
30724;BME280;17473;52.286;20.930;2023-02-28T05:09:11;101849.44;;;-0.87;62.77
30724;BME280;17473;52.286;20.930;2023-02-28T05:11:39;101858.25;;;-0.94;63.11
30724;BME280;17473;52.286;20.930;2023-02-28T05:14:13;101860.72;;;-0.96;62.90
30724;BME280;17473;52.286;20.930;2023-02-28T05:16:41;101862.09;;;-0.90;62.76
30724;BME280;17473;52.286;20.930;2023-02-28T05:19:08;101870.81;;;-0.90;62.53
30724;BME280;17473;52.286;20.930;2023-02-28T05:21:38;101877.03;;;-0.88;62.59
30724;BME280;17473;52.286;20.930;2023-02-28T05:24:10;101883.19;;;-0.79;61.89
30724;BME280;17473;52.286;20.930;2023-02-28T05:26:40;101888.38;;;-0.79;61.80
30724;BME280;17473;52.286;20.930;2023-02-28T05:29:09;101890.38;;;-0.76;61.23
30724;BME280;17473;52.286;20.930;2023-02-28T05:31:37;101883.84;;;-0.64;60.85
30724;BME280;17473;52.286;20.930;2023-02-28T05:34:04;101884.31;;;-0.68;60.87
30724;BME280;17473;52.286;20.930;2023-02-28T05:36:31;101897.19;;;-0.43;60.69
30724;BME280;17473;52.286;20.930;2023-02-28T05:38:59;101905.81;;;0.00;58.75
30724;BME280;17473;52.286;20.930;2023-02-28T05:41:26;101907.50;;;0.17;57.41
30724;BME280;17473;52.286;20.930;2023-02-28T05:43:54;101897.25;;;0.10;56.40
30724;BME280;17473;52.286;20.930;2023-02-28T05:46:21;101900.91;;;0.03;56.94
30724;BME280;17473;52.286;20.930;2023-02-28T05:48:48;101890.53;;;0.29;56.55
30724;BME280;17473;52.286;20.930;2023-02-28T05:51:16;101894.16;;;1.49;53.70
30724;BME280;17473;52.286;20.930;2023-02-28T05:53:44;101896.25;;;1.53;52.54
30724;BME280;17473;52.286;20.930;2023-02-28T05:56:11;101899.19;;;1.19;53.11
30724;BME280;17473;52.286;20.930;2023-02-28T05:58:38;101912.31;;;0.84;54.22
30724;BME280;17473;52.286;20.930;2023-02-28T06:01:39;101912.78;;;0.89;53.84
30724;BME280;17473;52.286;20.930;2023-02-28T06:04:09;101915.66;;;0.92;53.94
30724;BME280;17473;52.286;20.930;2023-02-28T06:06:49;101914.75;;;0.83;54.56
30724;BME280;17473;52.286;20.930;2023-02-28T06:09:17;101924.25;;;0.82;54.68
30724;BME280;17473;52.286;20.930;2023-02-28T06:11:44;101922.31;;;0.62;54.22
30724;BME280;17473;52.286;20.930;2023-02-28T06:14:17;101922.59;;;0.65;54.80
30724;BME280;17473;52.286;20.930;2023-02-28T06:16:45;101924.53;;;0.85;54.50
30724;BME280;17473;52.286;20.930;2023-02-28T06:19:12;101922.69;;;0.93;54.35
30724;BME280;17473;52.286;20.930;2023-02-28T06:21:40;101923.97;;;1.24;53.53
30724;BME280;17473;52.286;20.930;2023-02-28T06:24:08;101921.34;;;1.24;53.82
30724;BME280;17473;52.286;20.930;2023-02-28T06:26:36;101926.53;;;1.33;53.68
30724;BME280;17473;52.286;20.930;2023-02-28T06:29:03;101922.19;;;1.15;53.91
30724;BME280;17473;52.286;20.930;2023-02-28T06:31:31;101910.63;;;1.30;53.75
30724;BME280;17473;52.286;20.930;2023-02-28T06:33:58;101921.03;;;1.30;53.63
30724;BME280;17473;52.286;20.930;2023-02-28T06:36:25;101909.44;;;1.54;53.24
30724;BME280;17473;52.286;20.930;2023-02-28T06:38:53;101909.00;;;1.50;53.37
30724;BME280;17473;52.286;20.930;2023-02-28T06:41:24;101906.44;;;1.41;52.96
30724;BME280;17473;52.286;20.930;2023-02-28T06:43:53;101911.47;;;1.12;53.13
30724;BME280;17473;52.286;20.930;2023-02-28T06:46:20;101897.63;;;1.21;53.10
30724;BME280;17473;52.286;20.930;2023-02-28T06:48:48;101895.00;;;1.30;52.62
30724;BME280;17473;52.286;20.930;2023-02-28T06:51:19;101887.97;;;1.29;52.37
30724;BME280;17473;52.286;20.930;2023-02-28T06:53:51;101890.78;;;1.50;51.60
30724;BME280;17473;52.286;20.930;2023-02-28T06:56:19;101890.91;;;1.23;52.32
30724;BME280;17473;52.286;20.930;2023-02-28T06:58:48;101879.19;;;1.37;52.40
30724;BME280;17473;52.286;20.930;2023-02-28T07:01:17;101886.44;;;2.35;49.84
30724;BME280;17473;52.286;20.930;2023-02-28T07:03:46;101877.31;;;4.54;45.97
30724;BME280;17473;52.286;20.930;2023-02-28T07:06:13;101865.38;;;7.12;40.86
30724;BME280;17473;52.286;20.930;2023-02-28T07:08:40;101867.50;;;8.72;37.26
30724;BME280;17473;52.286;20.930;2023-02-28T07:11:08;101862.00;;;9.83;34.80
30724;BME280;17473;52.286;20.930;2023-02-28T07:13:36;101854.00;;;10.56;33.53
30724;BME280;17473;52.286;20.930;2023-02-28T07:16:06;101869.00;;;11.86;31.70
30724;BME280;17473;52.286;20.930;2023-02-28T07:18:36;101861.06;;;12.75;30.25
30724;BME280;17473;52.286;20.930;2023-02-28T07:21:06;101853.31;;;13.18;29.52
30724;BME280;17473;52.286;20.930;2023-02-28T07:23:33;101847.00;;;13.34;28.91
30724;BME280;17473;52.286;20.930;2023-02-28T07:26:01;101848.56;;;14.31;28.14
30724;BME280;17473;52.286;20.930;2023-02-28T07:28:29;101852.59;;;14.21;27.10
30724;BME280;17473;52.286;20.930;2023-02-28T07:30:56;101843.00;;;14.46;26.88
30724;BME280;17473;52.286;20.930;2023-02-28T07:33:23;101846.72;;;15.18;26.60
30724;BME280;17473;52.286;20.930;2023-02-28T07:35:50;101839.41;;;16.11;25.88
30724;BME280;17473;52.286;20.930;2023-02-28T07:38:18;101843.00;;;16.94;25.18
30724;BME280;17473;52.286;20.930;2023-02-28T07:40:45;101840.91;;;16.56;24.21
30724;BME280;17473;52.286;20.930;2023-02-28T07:43:12;101844.53;;;17.46;24.52
30724;BME280;17473;52.286;20.930;2023-02-28T07:45:39;101838.50;;;17.86;24.35
30724;BME280;17473;52.286;20.930;2023-02-28T07:48:06;101833.59;;;18.38;23.72
30724;BME280;17473;52.286;20.930;2023-02-28T07:50:37;101840.75;;;18.75;23.34
30724;BME280;17473;52.286;20.930;2023-02-28T07:53:04;101843.78;;;18.53;22.60
30724;BME280;17473;52.286;20.930;2023-02-28T07:55:31;101844.91;;;19.01;22.67
30724;BME280;17473;52.286;20.930;2023-02-28T07:57:58;101847.78;;;19.10;22.43
30724;BME280;17473;52.286;20.930;2023-02-28T08:00:25;101846.97;;;19.13;21.90
30724;BME280;17473;52.286;20.930;2023-02-28T08:02:53;101847.78;;;19.10;21.97
30724;BME280;17473;52.286;20.930;2023-02-28T08:05:20;101852.91;;;19.01;21.48
30724;BME280;17473;52.286;20.930;2023-02-28T08:07:49;101852.84;;;19.39;21.74
30724;BME280;17473;52.286;20.930;2023-02-28T08:10:16;101844.28;;;20.03;21.16
30724;BME280;17473;52.286;20.930;2023-02-28T08:12:44;101848.16;;;20.22;20.89
30724;BME280;17473;52.286;20.930;2023-02-28T08:15:11;101852.56;;;20.15;20.61
30724;BME280;17473;52.286;20.930;2023-02-28T08:17:38;101844.75;;;19.82;21.58
30724;BME280;17473;52.286;20.930;2023-02-28T08:20:06;101847.09;;;20.64;20.51
30724;BME280;17473;52.286;20.930;2023-02-28T08:22:34;101852.22;;;19.97;20.59
30724;BME280;17473;52.286;20.930;2023-02-28T08:25:01;101843.47;;;20.62;20.69
30724;BME280;17473;52.286;20.930;2023-02-28T08:27:28;101839.41;;;20.31;19.99
30724;BME280;17473;52.286;20.930;2023-02-28T08:29:55;101844.19;;;20.51;20.31
30724;BME280;17473;52.286;20.930;2023-02-28T08:32:22;101844.59;;;20.75;19.90
30724;BME280;17473;52.286;20.930;2023-02-28T08:34:56;101847.22;;;20.18;19.70
30724;BME280;17473;52.286;20.930;2023-02-28T08:37:23;101848.56;;;20.45;20.21
30724;BME280;17473;52.286;20.930;2023-02-28T08:39:50;101854.34;;;20.72;19.65
30724;BME280;17473;52.286;20.930;2023-02-28T08:42:22;101853.09;;;20.48;19.54
30724;BME280;17473;52.286;20.930;2023-02-28T08:44:49;101845.06;;;20.49;19.57
30724;BME280;17473;52.286;20.930;2023-02-28T08:47:16;101860.53;;;20.14;19.79
30724;BME280;17473;52.286;20.930;2023-02-28T08:49:43;101854.47;;;20.24;19.25
30724;BME280;17473;52.286;20.930;2023-02-28T08:52:11;101859.16;;;19.85;19.54
30724;BME280;17473;52.286;20.930;2023-02-28T08:54:38;101856.44;;;19.39;20.14
30724;BME280;17473;52.286;20.930;2023-02-28T08:57:05;101860.94;;;19.85;19.80
30724;BME280;17473;52.286;20.930;2023-02-28T08:59:32;101864.59;;;19.44;19.35
30724;BME280;17473;52.286;20.930;2023-02-28T09:01:59;101852.63;;;20.20;19.65
30724;BME280;17473;52.286;20.930;2023-02-28T09:04:26;101844.91;;;20.39;18.61
30724;BME280;17473;52.286;20.930;2023-02-28T09:06:53;101856.28;;;20.80;18.79
30724;BME280;17473;52.286;20.930;2023-02-28T09:09:20;101858.13;;;20.85;18.92
30724;BME280;17473;52.286;20.930;2023-02-28T09:11:47;101865.72;;;21.15;19.01
30724;BME280;17473;52.286;20.930;2023-02-28T09:14:15;101862.31;;;21.29;18.09
30724;BME280;17473;52.286;20.930;2023-02-28T09:16:44;101862.03;;;21.07;18.64
30724;BME280;17473;52.286;20.930;2023-02-28T09:19:12;101864.66;;;21.73;18.14
30724;BME280;17473;52.286;20.930;2023-02-28T09:21:39;101865.78;;;21.97;17.88
30724;BME280;17473;52.286;20.930;2023-02-28T09:24:07;101866.09;;;22.29;17.38
30724;BME280;17473;52.286;20.930;2023-02-28T09:26:34;101855.59;;;22.59;17.25
30724;BME280;17473;52.286;20.930;2023-02-28T09:29:13;101857.50;;;22.72;17.20
30724;BME280;17473;52.286;20.930;2023-02-28T09:31:41;101867.41;;;22.81;16.59
30724;BME280;17473;52.286;20.930;2023-02-28T09:34:08;101865.63;;;22.86;16.75
30724;BME280;17473;52.286;20.930;2023-02-28T09:36:35;101858.56;;;22.99;16.38
30724;BME280;17473;52.286;20.930;2023-02-28T09:39:12;101853.16;;;23.02;16.92
30724;BME280;17473;52.286;20.930;2023-02-28T09:41:44;101859.63;;;23.31;16.43
30724;BME280;17473;52.286;20.930;2023-02-28T09:44:40;101853.28;;;23.22;16.40
30724;BME280;17473;52.286;20.930;2023-02-28T09:47:40;101866.81;;;23.35;16.43
30724;BME280;17473;52.286;20.930;2023-02-28T09:50:28;101862.38;;;23.51;16.39
30724;BME280;17473;52.286;20.930;2023-02-28T09:52:56;101853.41;;;23.59;16.54
30724;BME280;17473;52.286;20.930;2023-02-28T09:55:42;101854.38;;;23.89;16.28
30724;BME280;17473;52.286;20.930;2023-02-28T10:01:26;101860.63;;;23.71;16.25
30724;BME280;17473;52.286;20.930;2023-02-28T10:04:04;101861.63;;;24.00;16.10
30724;BME280;17473;52.286;20.930;2023-02-28T10:06:50;101858.94;;;24.07;15.98
30724;BME280;17473;52.286;20.930;2023-02-28T10:09:27;101859.84;;;24.31;15.77
30724;BME280;17473;52.286;20.930;2023-02-28T10:12:05;101866.16;;;24.33;15.96
30724;BME280;17473;52.286;20.930;2023-02-28T10:14:34;101864.34;;;24.15;15.86
30724;BME280;17473;52.286;20.930;2023-02-28T10:17:25;101858.03;;;23.98;16.06
30724;BME280;17473;52.286;20.930;2023-02-28T10:20:24;101858.88;;;23.90;15.83
30724;BME280;17473;52.286;20.930;2023-02-28T10:26:00;101854.44;;;24.05;15.85
30724;BME280;17473;52.286;20.930;2023-02-28T10:28:29;101859.69;;;23.48;16.00
30724;BME280;17473;52.286;20.930;2023-02-28T10:30:58;101853.19;;;23.05;16.29
30724;BME280;17473;52.286;20.930;2023-02-28T10:33:34;101856.03;;;23.36;15.87
30724;BME280;17473;52.286;20.930;2023-02-28T10:36:02;101847.91;;;23.25;16.18
30724;BME280;17473;52.286;20.930;2023-02-28T10:38:37;101851.97;;;22.54;16.26
30724;BME280;17473;52.286;20.930;2023-02-28T10:41:09;101848.66;;;21.85;17.16
30724;BME280;17473;52.286;20.930;2023-02-28T10:43:38;101848.31;;;21.54;17.11
30724;BME280;17473;52.286;20.930;2023-02-28T10:48:47;101843.47;;;20.62;17.86
30724;BME280;17473;52.286;20.930;2023-02-28T10:51:19;101839.53;;;19.86;18.20
30724;BME280;17473;52.286;20.930;2023-02-28T10:53:52;101837.81;;;19.03;19.22
30724;BME280;17473;52.286;20.930;2023-02-28T10:56:28;101837.31;;;19.21;19.05
30724;BME280;17473;52.286;20.930;2023-02-28T11:01:44;101829.84;;;18.68;19.43
30724;BME280;17473;52.286;20.930;2023-02-28T11:04:33;101836.31;;;19.16;19.54
30724;BME280;17473;52.286;20.930;2023-02-28T11:07:20;101824.44;;;19.47;19.09
30724;BME280;17473;52.286;20.930;2023-02-28T11:09:52;101832.56;;;19.52;18.90
30724;BME280;17473;52.286;20.930;2023-02-28T11:12:34;101813.16;;;19.64;19.12
30724;BME280;17473;52.286;20.930;2023-02-28T11:15:35;101813.38;;;19.75;19.22
30724;BME280;17473;52.286;20.930;2023-02-28T11:20:40;101794.81;;;20.41;18.55
30724;BME280;17473;52.286;20.930;2023-02-28T11:23:12;101793.28;;;20.57;18.03
30724;BME280;17473;52.286;20.930;2023-02-28T11:25:51;101793.88;;;20.37;18.21
30724;BME280;17473;52.286;20.930;2023-02-28T11:28:34;101787.50;;;20.27;18.40
30724;BME280;17473;52.286;20.930;2023-02-28T11:31:23;101792.91;;;20.30;18.23
30724;BME280;17473;52.286;20.930;2023-02-28T11:33:53;101787.41;;;20.21;18.30
30724;BME280;17473;52.286;20.930;2023-02-28T11:36:29;101784.44;;;20.06;18.69
30724;BME280;17473;52.286;20.930;2023-02-28T11:39:00;101782.06;;;19.72;18.67
30724;BME280;17473;52.286;20.930;2023-02-28T11:47:07;101783.72;;;18.78;19.68
30724;BME280;17473;52.286;20.930;2023-02-28T11:55:17;101773.69;;;18.29;19.81
30724;BME280;17473;52.286;20.930;2023-02-28T12:04:24;101759.34;;;17.91;20.90
30724;BME280;17473;52.286;20.930;2023-02-28T12:07:09;101758.53;;;17.93;20.77
30724;BME280;17473;52.286;20.930;2023-02-28T12:21:58;101754.09;;;16.95;21.52
30724;BME280;17473;52.286;20.930;2023-02-28T12:27:13;101749.56;;;16.34;22.15
30724;BME280;17473;52.286;20.930;2023-02-28T12:32:56;101749.88;;;15.89;22.56
30724;BME280;17473;52.286;20.930;2023-02-28T12:35:47;101748.28;;;15.94;22.47
30724;BME280;17473;52.286;20.930;2023-02-28T12:38:22;101739.88;;;15.83;22.79
30724;BME280;17473;52.286;20.930;2023-02-28T12:41:01;101736.72;;;15.42;23.19
30724;BME280;17473;52.286;20.930;2023-02-28T12:43:37;101735.31;;;14.79;23.96
30724;BME280;17473;52.286;20.930;2023-02-28T12:46:25;101727.88;;;14.47;24.38
30724;BME280;17473;52.286;20.930;2023-02-28T12:49:04;101729.31;;;14.84;24.03
30724;BME280;17473;52.286;20.930;2023-02-28T12:51:33;101723.44;;;15.17;23.50
30724;BME280;17473;52.286;20.930;2023-02-28T12:54:31;101729.47;;;13.98;24.55
30724;BME280;17473;52.286;20.930;2023-02-28T12:57:24;101726.69;;;13.53;25.17
30724;BME280;17473;52.286;20.930;2023-02-28T13:00:16;101719.75;;;13.56;25.16
30724;BME280;17473;52.286;20.930;2023-02-28T13:06:45;101723.50;;;13.21;25.78
30724;BME280;17473;52.286;20.930;2023-02-28T13:09:21;101718.47;;;13.27;25.88
30724;BME280;17473;52.286;20.930;2023-02-28T13:11:53;101710.09;;;13.37;25.72
30724;BME280;17473;52.286;20.930;2023-02-28T13:17:18;101716.34;;;12.79;26.69
30724;BME280;17473;52.286;20.930;2023-02-28T13:19:59;101700.38;;;12.58;27.11
30724;BME280;17473;52.286;20.930;2023-02-28T13:25:02;101707.13;;;12.71;26.94
30724;BME280;17473;52.286;20.930;2023-02-28T13:27:38;101704.84;;;12.41;27.19
30724;BME280;17473;52.286;20.930;2023-02-28T13:33:32;101690.16;;;12.10;27.71
30724;BME280;17473;52.286;20.930;2023-02-28T13:41:48;101684.75;;;11.72;28.36
30724;BME280;17473;52.286;20.930;2023-02-28T13:49:33;101675.16;;;11.56;28.29
30724;BME280;17473;52.286;20.930;2023-02-28T13:58:28;101666.53;;;11.25;29.36
30724;BME280;17473;52.286;20.930;2023-02-28T14:07:00;101659.81;;;11.14;29.20
30724;BME280;17473;52.286;20.930;2023-02-28T14:12:51;101655.47;;;10.98;29.56
30724;BME280;17473;52.286;20.930;2023-02-28T14:18:20;101657.31;;;10.66;29.85
30724;BME280;17473;52.286;20.930;2023-02-28T14:33:16;101641.88;;;10.41;30.93
30724;BME280;17473;52.286;20.930;2023-02-28T14:36:10;101643.13;;;10.47;30.82
30724;BME280;17473;52.286;20.930;2023-02-28T14:39:00;101637.44;;;10.25;31.08
30724;BME280;17473;52.286;20.930;2023-02-28T14:41:38;101639.94;;;10.22;31.24
30724;BME280;17473;52.286;20.930;2023-02-28T14:44:26;101627.50;;;10.04;31.52
30724;BME280;17473;52.286;20.930;2023-02-28T14:47:02;101625.53;;;10.00;31.75
30724;BME280;17473;52.286;20.930;2023-02-28T14:49:42;101636.69;;;9.79;32.12
30724;BME280;17473;52.286;20.930;2023-02-28T14:52:43;101629.59;;;9.78;32.26
30724;BME280;17473;52.286;20.930;2023-02-28T14:55:17;101626.41;;;9.69;32.40
30724;BME280;17473;52.286;20.930;2023-02-28T14:58:28;101630.06;;;9.71;32.36
30724;BME280;17473;52.286;20.930;2023-02-28T15:01:01;101626.47;;;9.54;32.62
30724;BME280;17473;52.286;20.930;2023-02-28T15:03:35;101630.63;;;9.50;32.60
30724;BME280;17473;52.286;20.930;2023-02-28T15:06:12;101629.41;;;9.44;32.52
30724;BME280;17473;52.286;20.930;2023-02-28T15:08:39;101636.31;;;9.42;32.87
30724;BME280;17473;52.286;20.930;2023-02-28T15:11:15;101634.03;;;9.33;33.16
30724;BME280;17473;52.286;20.930;2023-02-28T15:13:52;101637.66;;;9.20;33.41
30724;BME280;17473;52.286;20.930;2023-02-28T15:19:07;101643.72;;;9.64;33.03
30724;BME280;17473;52.286;20.930;2023-02-28T15:21:41;101637.97;;;9.71;32.79
30724;BME280;17473;52.286;20.930;2023-02-28T15:26:58;101642.97;;;9.05;34.58
30724;BME280;17473;52.286;20.930;2023-02-28T15:29:29;101639.56;;;8.92;34.85
30724;BME280;17473;52.286;20.930;2023-02-28T15:32:07;101625.59;;;8.93;34.97
30724;BME280;17473;52.286;20.930;2023-02-28T15:34:43;101633.91;;;8.71;35.34
30724;BME280;17473;52.286;20.930;2023-02-28T15:37:40;101640.31;;;8.61;35.51
30724;BME280;17473;52.286;20.930;2023-02-28T15:40:32;101630.44;;;8.57;35.78